Have a Safe July 4th! 

Flight Track Log - Related Links

Times and Time Zones

All times are in EDT time to prevent confusion due to time zone crossing. See the TRS282 flight status page for this flight to view local times or setup timezone preferences in your user account.

Time Position Orientation Groundspeed Altitude Reporting Facility
EDT Latitude Longitude Course Direction KTS MPH feet Rate Location/Type
Sun 12:54:36 PM 42.9667 -87.8833 289° West 168 193 1,800  Level KMKE
Sun 12:56:01 PM 42.9833 -87.9500 289° West 219 252 3,900 1,606 Climbing KMKE
Sun 12:56:58 PM 42.9536 -88.0050 234° Southwest 244 281 5,600 2,168 Climbing Chicago Center
Sun 12:58:00 PM 42.8894 -88.0794 220° Southwest 269 310 8,200 2,634 Climbing Chicago Center
Sun 12:59:01 PM 42.8136 -88.0717 176° South 275 316 11,000 2,439 Climbing Chicago Center
Sun 01:00:03 PM 42.7347 -88.0597 174° South 281 323 13,200 1,742 Climbing Chicago Center
Sun 01:01:05 PM 42.6467 -88.0544 177° South 315 362 14,600 1,161 Climbing Chicago Center
Sun 01:02:07 PM 42.5461 -88.0489 178° South 359 413 15,600 1,113 Climbing Chicago Center
Sun 01:03:09 PM 42.4367 -88.0406 177° South 392 451 16,900 1,512 Climbing Chicago Center
Sun 01:04:10 PM 42.3236 -88.0347 178° South 409 471 18,700 1,854 Climbing Chicago Center
Sun 01:05:12 PM 42.1800 -88.0253 177° South 428 493 20,700 1,597 Climbing Chicago Center
Sun 01:06:14 PM 42.0581 -88.0164 177° South 436 502 22,000 1,268 Climbing Chicago Center
Sun 01:07:15 PM 41.9325 -88.0083 177° South 448 516 23,300 1,659 Climbing Chicago Center
Sun 01:08:17 PM 41.8072 -87.9994 177° South 453 521 25,400 2,177 Climbing Chicago Center
Sun 01:09:19 PM 41.6900 -87.9897 176° South 432 497 27,800 1,561 Climbing Chicago Center
Sun 01:10:20 PM 41.5731 -87.9833 178° South 420 483 28,600 585 Climbing Chicago Center
Sun 01:11:22 PM 41.4389 -87.9753 177° South 431 496 29,000 194 Climbing Chicago Center
Sun 01:12:24 PM 41.3236 -87.9672 177° South 433 498 29,000  Level Chicago Center
Sun 01:13:26 PM 41.2017 -87.9606 178° South 435 501 29,000  Level Chicago Center
Sun 01:14:27 PM 41.0794 -87.9522 177° South 435 501 29,000  Level Chicago Center
Sun 01:15:29 PM 40.9333 -87.9422 177° South 437 503 29,000  Level Chicago Center
Sun 01:16:31 PM 40.8119 -87.9347 177° South 437 503 29,000  Level Chicago Center
Sun 01:17:32 PM 40.6903 -87.9258 177° South 437 503 29,000 390 Level Chicago Center
Sun 01:18:34 PM 40.5697 -87.9189 177° South 436 502 29,800 823 Climbing Chicago Center
Sun 01:19:36 PM 40.4494 -87.9108 177° South 436 502 30,700 585 Climbing Chicago Center
Sun 01:20:37 PM 40.3281 -87.9036 177° South 436 502 31,000 146 Climbing Chicago Center
Sun 01:21:39 PM 40.2089 -87.8706 168° South 443 510 31,000  Level Chicago Center
Sun 01:22:41 PM 40.0825 -87.8339 167° South 444 511 31,000  Level Chicago Center
Sun 01:23:42 PM 39.9669 -87.7983 167° South 435 501 31,000  Level Chicago Center
Sun 01:24:44 PM 39.8506 -87.7636 167° South 433 498 31,000  Level Chicago Center
Sun 01:25:46 PM 39.7083 -87.7203 167° South 434 499 31,000  Level Chicago Center
Sun 01:26:47 PM 39.5931 -87.6847 167° South 430 495 31,000  Level Chicago Center
Sun 01:27:49 PM 39.4769 -87.6486 167° South 430 495 31,000  Level Chicago Center
Sun 01:28:51 PM 39.3583 -87.6128 167° South 435 501 31,000  Level Chicago Center
Sun 01:29:52 PM 39.2400 -87.5783 167° South 434 499 31,000  Level Chicago Center
Sun 01:30:54 PM 39.1242 -87.5447 167° South 432 497 31,000  Level Chicago Center
Sun 01:31:55 PM 38.9814 -87.5031 167° South 434 499 31,000  Level Chicago Center
Sun 01:33:09 PM 38.8375 -87.4581 166° South 457 526 31,000  Level Memphis Center
Sun 01:34:25 PM 38.6869 -87.4122 167° South 465 535 31,000  Level Indianapolis Center
Sun 01:35:26 PM 38.5356 -87.3681 167° South 465 535 31,000  Level Indianapolis Center
Sun 01:36:28 PM 38.4089 -87.3317 167° South 465 535 31,000  Level Indianapolis Center
Sun 01:37:30 PM 38.2831 -87.2942 167° South 467 537 31,000  Level Indianapolis Center
Sun 01:38:32 PM 38.1578 -87.2581 167° South 467 537 31,000  Level Indianapolis Center
Sun 01:39:33 PM 38.0308 -87.2217 167° South 467 537 31,000  Level Indianapolis Center
Sun 01:40:35 PM 37.8781 -87.1767 167° South 468 539 31,000  Level Indianapolis Center
Sun 01:41:37 PM 37.7497 -87.1392 167° South 468 539 31,000  Level Indianapolis Center
Sun 01:42:39 PM 37.6217 -87.1019 167° South 469 540 31,000  Level Indianapolis Center
Sun 01:43:40 PM 37.4864 -87.0642 168° South 469 540 31,000  Level Indianapolis Center
Sun 01:44:42 PM 37.3567 -87.0269 167° South 471 542 31,000  Level Indianapolis Center
Sun 01:45:32 PM 37.2486 -86.9961 167° South 471 542 31,000  Level Memphis Center
Sun 01:46:34 PM 37.1178 -86.9594 167° South 473 544 31,000  Level Memphis Center
Sun 01:47:36 PM 36.9867 -86.9219 167° South 474 545 31,000  Level Memphis Center
Sun 01:48:38 PM 36.8558 -86.8847 167° South 475 547 31,000  Level Memphis Center
Sun 01:49:39 PM 36.7247 -86.8483 167° South 475 547 31,000  Level Memphis Center
Sun 01:50:41 PM 36.5917 -86.8097 167° South 478 550 31,000  Level Memphis Center
Sun 01:51:43 PM 36.4578 -86.7711 167° South 481 554 31,000  Level Memphis Center
Sun 01:52:45 PM 36.3183 -86.7331 168° South 487 560 31,000  Level Memphis Center
Sun 01:53:47 PM 36.1822 -86.6969 168° South 487 560 31,000  Level Memphis Center
Sun 01:54:49 PM 36.0600 -86.6219 154° Southeast 489 563 31,000  Level Memphis Center
Sun 01:55:51 PM 35.9417 -86.5281 147° Southeast 494 568 31,000  Level Memphis Center
Sun 01:56:53 PM 35.8039 -86.4178 147° Southeast 498 573 31,000  Level Memphis Center
Sun 01:57:55 PM 35.6872 -86.3217 146° Southeast 499 574 31,000  Level Memphis Center
Sun 01:58:57 PM 35.5706 -86.2275 147° Southeast 499 574 31,000  Level Memphis Center
Sun 01:59:59 PM 35.4444 -86.1261 147° Southeast 499 574 31,000 -532 Level Memphis Center
Sun 02:01:01 PM 35.3300 -86.0361 147° Southeast 495 570 29,900 -1,113 Descending Memphis Center
Sun 02:02:03 PM 35.2183 -85.9458 147° Southeast 488 562 28,700 -1,161 Descending Memphis Center
Sun 02:03:05 PM 35.1053 -85.8567 147° Southeast 487 560 27,500 -1,161 Descending Memphis Center
Sun 02:04:07 PM 34.9933 -85.7675 147° Southeast 486 559 26,300 -1,161 Descending Memphis Center
Sun 02:05:09 PM 34.8803 -85.6792 147° Southeast 485 558 25,100 -1,211 Descending Memphis Center
Sun 02:05:56 PM 34.7881 -85.6069 147° Southeast 479 551 24,100 -1,234 Descending Atlanta Center
Sun 02:06:56 PM 34.6808 -85.5214 147° Southeast 474 545 22,900 -1,200 Descending Atlanta Center
Sun 02:07:56 PM 34.5731 -85.4389 148° Southeast 474 545 21,700 -1,200 Descending Atlanta Center
Sun 02:08:56 PM 34.4697 -85.3567 147° Southeast 463 533 20,500 -1,550 Descending Atlanta Center
Sun 02:09:56 PM 34.3642 -85.2719 146° Southeast 431 496 18,600 -2,150 Descending Atlanta Center
Sun 02:10:56 PM 34.2667 -85.2025 150° Southeast 412 474 16,200 -2,300 Descending Atlanta Center
Sun 02:11:56 PM 34.1817 -85.1336 146° Southeast 399 459 14,000 -1,450 Descending Atlanta Center
Sun 02:12:56 PM 34.1156 -85.0575 136° Southeast 343 395 13,300 -500 Descending Atlanta Center
Sun 02:13:56 PM 34.0597 -84.9892 135° Southeast 299 344 13,000 -1,050 Descending Atlanta Center
Sun 02:14:56 PM 34.0061 -84.9183 132° Southeast 285 328 11,200 -1,700 Descending Atlanta Center
Sun 02:15:56 PM 33.9564 -84.8553 134° Southeast 285 328 9,600 -1,100 Descending Atlanta Center
Sun 02:16:56 PM 33.8897 -84.8244 159° South 268 308 9,000 -830 Descending Atlanta Center
Sun 02:17:30 PM 33.8333 -84.8167 173° South 266 306 8,300 -1,596 Descending Atlanta TRACON
Sun 02:18:30 PM 33.7667 -84.8000 168° South 257 296 6,500 -1,700 Descending Atlanta TRACON
Sun 02:19:30 PM 33.7000 -84.7833 168° South 248 285 4,900 -1,200 Descending Atlanta TRACON
Sun 02:20:30 PM 33.6500 -84.7333 140° Southeast 225 259 4,100 -470 Descending Atlanta TRACON
Sun 02:21:25 PM 33.6500 -84.6667 90° East 219 252 4,000 -200 Descending Atlanta TRACON
Sun 02:22:30 PM 33.6500 -84.6000 90° East 192 221 3,700 -667 Descending Atlanta TRACON
Sun 02:23:31 PM 33.6500 -84.5333 90° East 189 217 2,600 -991 Descending Atlanta TRACON
Sun 02:24:25 PM 33.6500 -84.4833 90° East 149 171 1,800 -737 Descending Atlanta TRACON
Sun 02:25:25 PM 33.6500 -84.4333 90° East 141 162 1,200 -600 Descending Atlanta TRACON
Sun 02:27:00 PM 33.6367 -84.4279 95° East  Level Estimated
Sun 02:34:00 PM 33.6367 -84.4279 North  Level Estimated
Sun 02:35:00 PM 33.6367 -84.4279 95° East  Level Estimated

Login

Don't have an account? Register now (free) for customized features, flight alerts, and more!